createdAt,value
2023-05-10T00:01:15.815Z,17.26
2023-05-10T00:03:42.592Z,17.26
2023-05-10T00:06:09.428Z,17.25
2023-05-10T00:08:36.153Z,17.26
2023-05-10T00:11:02.807Z,17.25
2023-05-10T00:13:29.539Z,17.23
2023-05-10T00:15:56.217Z,17.20
2023-05-10T00:18:22.819Z,17.17
2023-05-10T00:20:49.933Z,17.11
2023-05-10T00:23:16.634Z,17.09
2023-05-10T00:25:43.261Z,17.06
2023-05-10T00:28:09.871Z,17.03
2023-05-10T00:30:37.788Z,17.00
2023-05-10T00:33:04.405Z,16.99
2023-05-10T00:35:31.094Z,16.96
2023-05-10T00:37:57.820Z,16.98
2023-05-10T00:40:24.513Z,16.92
2023-05-10T00:42:54.480Z,16.84
2023-05-10T00:45:21.508Z,16.81
2023-05-10T00:47:48.512Z,16.76
2023-05-10T00:50:16.698Z,16.73
2023-05-10T00:52:43.972Z,16.71
2023-05-10T00:55:13.273Z,16.66
2023-05-10T00:57:40.656Z,16.65
2023-05-10T01:00:08.835Z,16.64
2023-05-10T01:02:36.251Z,16.63
2023-05-10T01:05:07.045Z,16.60
2023-05-10T01:07:33.664Z,16.58
2023-05-10T01:10:01.404Z,16.54
2023-05-10T01:12:28.490Z,16.52
2023-05-10T01:14:55.919Z,16.47
2023-05-10T01:17:23.502Z,16.44
2023-05-10T01:19:50.438Z,16.41
2023-05-10T01:22:31.970Z,16.39
2023-05-10T01:25:24.065Z,16.36
2023-05-10T01:27:59.757Z,16.28
2023-05-10T01:30:26.605Z,16.24
2023-05-10T01:33:10.729Z,16.22
2023-05-10T01:35:51.614Z,16.19
2023-05-10T01:38:48.285Z,16.15
2023-05-10T01:41:25.531Z,16.09
2023-05-10T01:44:02.528Z,16.04
2023-05-10T01:46:38.555Z,16.01
2023-05-10T01:49:30.288Z,15.96
2023-05-10T01:52:05.015Z,15.96
2023-05-10T01:54:34.068Z,15.97
2023-05-10T01:57:06.577Z,15.95
2023-05-10T01:59:42.266Z,15.95
2023-05-10T02:02:13.340Z,15.92
2023-05-10T02:04:41.402Z,15.90
2023-05-10T02:07:09.866Z,15.87
2023-05-10T02:09:38.153Z,15.82
2023-05-10T02:12:07.408Z,15.80
2023-05-10T02:14:37.650Z,15.77
2023-05-10T02:17:08.758Z,15.71
2023-05-10T02:19:38.713Z,15.65
2023-05-10T02:22:06.696Z,15.56
2023-05-10T02:24:35.669Z,15.50
2023-05-10T02:27:04.620Z,15.48
2023-05-10T02:29:33.492Z,15.48
2023-05-10T02:32:01.445Z,15.49
2023-05-10T02:34:29.212Z,15.46
2023-05-10T02:36:56.358Z,15.38
2023-05-10T02:39:24.492Z,15.34
2023-05-10T02:41:52.996Z,15.27
2023-05-10T02:44:21.532Z,15.28
2023-05-10T02:46:49.001Z,15.30
2023-05-10T02:49:16.616Z,15.32
2023-05-10T02:51:50.130Z,15.32
2023-05-10T02:54:21.195Z,15.33
2023-05-10T02:56:53.930Z,15.33
2023-05-10T02:59:20.738Z,15.35
2023-05-10T03:01:47.423Z,15.31
2023-05-10T03:04:14.265Z,15.17
2023-05-10T03:06:41.946Z,15.06
2023-05-10T03:09:10.519Z,15.01
2023-05-10T03:12:03.009Z,14.96
2023-05-10T03:14:44.481Z,14.99
2023-05-10T03:17:16.892Z,15.04
2023-05-10T03:19:52.749Z,14.99
2023-05-10T03:22:31.738Z,14.97
2023-05-10T03:24:59.267Z,14.93
2023-05-10T03:27:29.153Z,14.93
2023-05-10T03:29:57.710Z,14.94
2023-05-10T03:32:24.820Z,14.88
2023-05-10T03:34:51.505Z,14.85
2023-05-10T03:37:18.184Z,14.82
2023-05-10T03:39:44.973Z,14.75
2023-05-10T03:42:13.026Z,14.69
2023-05-10T03:44:40.840Z,14.66
2023-05-10T03:47:07.630Z,14.61
2023-05-10T03:49:34.536Z,14.56
2023-05-10T03:52:02.031Z,14.61
2023-05-10T03:54:28.752Z,14.63
2023-05-10T03:56:55.522Z,14.60
2023-05-10T03:59:22.280Z,14.56
2023-05-10T04:01:48.886Z,14.56
2023-05-10T04:04:15.698Z,14.55
2023-05-10T04:06:42.426Z,14.54
2023-05-10T04:09:09.627Z,14.57
2023-05-10T04:11:36.260Z,14.57
2023-05-10T04:14:02.947Z,14.56
2023-05-10T04:16:29.930Z,14.55
2023-05-10T04:18:56.626Z,14.57
2023-05-10T04:21:23.300Z,14.62
2023-05-10T04:23:50.032Z,14.64
2023-05-10T04:26:16.675Z,14.66
2023-05-10T04:28:43.236Z,14.65
2023-05-10T04:31:11.256Z,14.58
2023-05-10T04:33:38.152Z,14.54
2023-05-10T04:36:05.159Z,14.48
2023-05-10T04:38:31.920Z,14.44
2023-05-10T04:41:08.593Z,14.44
2023-05-10T04:43:35.565Z,14.41
2023-05-10T04:46:02.374Z,14.40
2023-05-10T04:48:29.225Z,14.37
2023-05-10T04:50:56.167Z,14.32
2023-05-10T04:53:23.337Z,14.25
2023-05-10T04:55:49.969Z,14.22
2023-05-10T04:58:17.008Z,14.20
2023-05-10T05:00:43.648Z,14.21
2023-05-10T05:03:10.759Z,14.18
2023-05-10T05:05:37.662Z,14.15
2023-05-10T05:08:04.501Z,14.16
2023-05-10T05:10:31.434Z,14.15
2023-05-10T05:12:58.073Z,14.15
2023-05-10T05:15:24.739Z,14.16
2023-05-10T05:17:51.569Z,14.15
2023-05-10T05:20:20.018Z,14.16
2023-05-10T05:22:46.856Z,14.14
2023-05-10T05:25:13.707Z,14.11
2023-05-10T05:27:40.380Z,14.11
2023-05-10T05:30:08.140Z,14.11
2023-05-10T05:32:35.224Z,14.14
2023-05-10T05:35:02.122Z,14.14
2023-05-10T05:37:28.724Z,14.19
2023-05-10T05:39:56.129Z,14.23
2023-05-10T05:42:22.761Z,14.22
2023-05-10T05:44:49.528Z,14.15
2023-05-10T05:47:16.226Z,14.14
2023-05-10T05:49:42.981Z,14.17
2023-05-10T05:52:09.658Z,14.22
2023-05-10T05:54:36.384Z,14.30
2023-05-10T05:57:03.130Z,14.32
2023-05-10T05:59:29.793Z,14.36
2023-05-10T06:01:56.439Z,14.40
2023-05-10T06:04:23.652Z,14.42
2023-05-10T06:06:50.396Z,14.42
2023-05-10T06:09:17.099Z,14.45
2023-05-10T06:11:44.011Z,14.42
2023-05-10T06:14:10.805Z,14.32
2023-05-10T06:16:37.903Z,14.15
2023-05-10T06:19:05.039Z,14.00
2023-05-10T06:21:31.710Z,13.88
2023-05-10T06:23:58.375Z,13.84
2023-05-10T06:26:26.467Z,13.82
2023-05-10T06:28:53.114Z,13.74
2023-05-10T06:31:19.856Z,13.74
2023-05-10T06:33:46.535Z,13.72
2023-05-10T06:36:14.348Z,13.62
2023-05-10T06:38:41.173Z,13.55
2023-05-10T06:41:07.786Z,13.48
2023-05-10T06:43:36.546Z,13.45
2023-05-10T06:46:03.216Z,13.42
2023-05-10T06:48:29.935Z,13.42
2023-05-10T06:50:56.674Z,13.43
2023-05-10T06:53:23.418Z,13.44
2023-05-10T06:55:50.672Z,13.46
2023-05-10T06:58:17.692Z,13.46
2023-05-10T07:00:44.971Z,13.49
2023-05-10T07:03:12.131Z,13.51
2023-05-10T07:05:38.902Z,13.51
2023-05-10T07:08:05.576Z,13.52
2023-05-10T07:10:32.188Z,13.51
2023-05-10T07:12:59.010Z,13.54
2023-05-10T07:15:25.751Z,13.53
2023-05-10T07:17:53.330Z,13.50
2023-05-10T07:20:20.467Z,13.49
2023-05-10T07:22:47.113Z,13.50
2023-05-10T07:25:13.844Z,13.46
2023-05-10T07:27:40.480Z,13.49
2023-05-10T07:30:08.148Z,13.59
2023-05-10T07:32:34.752Z,13.68
2023-05-10T07:35:01.453Z,13.73
2023-05-10T07:37:28.051Z,13.78
2023-05-10T07:39:54.664Z,13.73
2023-05-10T07:42:21.309Z,13.69
2023-05-10T07:44:48.265Z,13.68
2023-05-10T07:47:14.863Z,13.74
2023-05-10T07:49:41.906Z,13.76
2023-05-10T07:52:08.529Z,13.69
2023-05-10T07:54:35.193Z,13.67
2023-05-10T07:57:01.906Z,13.70
2023-05-10T07:59:28.552Z,13.73
2023-05-10T08:01:55.300Z,13.72
2023-05-10T08:04:21.905Z,13.73
2023-05-10T08:06:48.664Z,13.77
2023-05-10T08:09:15.403Z,13.86
2023-05-10T08:11:42.094Z,13.90
2023-05-10T08:14:08.726Z,13.92
2023-05-10T08:16:35.673Z,13.99
2023-05-10T08:19:02.586Z,14.06
2023-05-10T08:21:29.408Z,14.15
2023-05-10T08:23:56.037Z,14.24
2023-05-10T08:26:22.797Z,14.34
2023-05-10T08:28:49.550Z,14.43
2023-05-10T08:31:16.784Z,14.50
2023-05-10T08:33:44.538Z,14.60
2023-05-10T08:36:11.734Z,14.64
2023-05-10T08:38:38.961Z,14.55
2023-05-10T08:41:06.465Z,14.44
2023-05-10T08:43:33.384Z,14.46
2023-05-10T08:46:06.258Z,14.46
2023-05-10T08:48:35.506Z,14.46
2023-05-10T08:51:05.176Z,14.48
2023-05-10T08:53:34.138Z,14.54
2023-05-10T08:56:03.376Z,14.60
2023-05-10T08:58:30.711Z,14.65
2023-05-10T09:00:58.123Z,14.66
2023-05-10T09:03:24.802Z,14.63
2023-05-10T09:05:51.787Z,14.57
2023-05-10T09:08:18.754Z,14.61
2023-05-10T09:10:48.236Z,14.63
2023-05-10T09:13:16.777Z,14.64
2023-05-10T09:15:45.947Z,14.70
2023-05-10T09:18:13.609Z,14.75
2023-05-10T09:20:41.247Z,14.82
2023-05-10T09:23:08.377Z,14.84
2023-05-10T09:25:35.056Z,14.78
2023-05-10T09:28:01.884Z,14.75
2023-05-10T09:30:32.262Z,14.74
2023-05-10T09:33:00.714Z,14.64
2023-05-10T09:35:32.771Z,14.60
2023-05-10T09:38:01.443Z,14.58
2023-05-10T09:40:29.852Z,14.54
2023-05-10T09:43:04.004Z,14.55
2023-05-10T09:45:37.747Z,14.57
2023-05-10T09:48:06.313Z,14.58
2023-05-10T09:50:33.185Z,14.54
2023-05-10T09:53:01.849Z,14.50
2023-05-10T09:55:45.833Z,14.51
2023-05-10T09:58:13.892Z,14.52
2023-05-10T10:00:46.021Z,14.55
2023-05-10T10:03:18.549Z,14.60
2023-05-10T10:05:46.340Z,14.61
2023-05-10T10:08:14.050Z,14.62
2023-05-10T10:10:41.931Z,14.63
2023-05-10T10:13:09.129Z,14.71
2023-05-10T10:15:36.189Z,14.77
2023-05-10T10:18:05.249Z,14.81
2023-05-10T10:20:32.449Z,14.88
2023-05-10T10:22:59.082Z,14.94
2023-05-10T10:25:26.615Z,14.93
2023-05-10T10:27:53.275Z,14.93
2023-05-10T10:30:35.022Z,14.90
2023-05-10T10:33:13.163Z,14.89
2023-05-10T10:35:46.640Z,14.89
2023-05-10T10:38:17.581Z,14.87
2023-05-10T10:40:44.288Z,14.84
2023-05-10T10:43:28.143Z,14.80
2023-05-10T10:46:18.136Z,14.81
2023-05-10T10:48:49.616Z,14.73
2023-05-10T10:51:16.340Z,14.74
2023-05-10T10:53:44.463Z,14.69
2023-05-10T10:56:14.715Z,14.60
2023-05-10T10:58:42.461Z,14.55
2023-05-10T11:01:17.841Z,14.58
2023-05-10T11:03:59.613Z,14.67
2023-05-10T11:06:34.541Z,14.70
2023-05-10T11:09:13.435Z,14.70
2023-05-10T11:11:56.426Z,14.78
2023-05-10T11:14:23.665Z,14.82
2023-05-10T11:16:50.849Z,14.79
2023-05-10T11:19:19.015Z,14.86
2023-05-10T11:21:51.026Z,14.93
2023-05-10T11:24:28.100Z,14.95
2023-05-10T11:26:55.186Z,14.92
2023-05-10T11:29:21.816Z,14.91
2023-05-10T11:31:50.193Z,14.92
2023-05-10T11:34:34.971Z,14.97
2023-05-10T11:37:02.336Z,14.99
2023-05-10T11:39:30.696Z,15.04
2023-05-10T11:41:58.944Z,15.11
2023-05-10T11:44:33.171Z,15.18
2023-05-10T11:47:01.735Z,15.21
2023-05-10T11:49:28.766Z,15.21
2023-05-10T11:52:06.207Z,15.25
2023-05-10T11:54:32.939Z,15.28
2023-05-10T11:56:59.626Z,15.31
2023-05-10T11:59:26.231Z,15.32
2023-05-10T12:01:53.004Z,15.34
2023-05-10T12:04:20.263Z,15.35
2023-05-10T12:06:47.824Z,15.33
2023-05-10T12:09:16.737Z,15.26
2023-05-10T12:11:44.759Z,15.25
2023-05-10T12:14:12.449Z,15.23
2023-05-10T12:16:39.198Z,15.21
2023-05-10T12:19:06.530Z,15.23
2023-05-10T12:21:34.454Z,15.28
2023-05-10T12:24:04.054Z,15.32
2023-05-10T12:26:31.370Z,15.36
2023-05-10T12:29:18.732Z,15.41
2023-05-10T12:32:00.531Z,15.44
2023-05-10T12:34:35.935Z,15.40
2023-05-10T12:37:05.491Z,15.37
2023-05-10T12:39:42.587Z,15.38
2023-05-10T12:42:09.520Z,15.35
2023-05-10T12:44:36.210Z,15.35
2023-05-10T12:47:02.790Z,15.31
2023-05-10T12:49:29.328Z,15.28
2023-05-10T12:51:55.865Z,15.28
2023-05-10T12:54:22.477Z,15.30
2023-05-10T12:56:48.991Z,15.37
2023-05-10T12:59:15.565Z,15.38
2023-05-10T13:01:42.281Z,15.35
2023-05-10T13:04:08.987Z,15.39
2023-05-10T13:06:36.221Z,15.39
2023-05-10T13:09:03.401Z,15.44
2023-05-10T13:11:29.979Z,15.44
2023-05-10T13:13:56.546Z,15.44
2023-05-10T13:16:23.758Z,15.47
2023-05-10T13:18:50.425Z,15.54
2023-05-10T13:21:17.599Z,15.59
2023-05-10T13:23:44.108Z,15.65
2023-05-10T13:26:10.739Z,15.63
2023-05-10T13:28:39.649Z,15.57
2023-05-10T13:31:06.328Z,15.51
2023-05-10T13:33:32.933Z,15.47
2023-05-10T13:35:59.599Z,15.44
2023-05-10T13:38:26.681Z,15.43
2023-05-10T13:40:53.895Z,15.39
2023-05-10T13:43:20.663Z,15.35
2023-05-10T13:45:47.483Z,15.30
2023-05-10T13:48:14.106Z,15.26
2023-05-10T13:50:41.109Z,15.24
2023-05-10T13:53:07.722Z,15.23
2023-05-10T13:55:34.744Z,15.22
2023-05-10T13:58:01.280Z,15.23
2023-05-10T14:00:28.248Z,15.26
2023-05-10T14:02:55.200Z,15.28
2023-05-10T14:05:25.344Z,15.28
2023-05-10T14:07:52.974Z,15.31
2023-05-10T14:10:19.591Z,15.33
2023-05-10T14:12:46.128Z,15.31
2023-05-10T14:15:12.756Z,15.28
2023-05-10T14:17:39.437Z,15.28
2023-05-10T14:20:07.143Z,15.29
2023-05-10T14:22:33.806Z,15.32
2023-05-10T14:25:00.661Z,15.36
2023-05-10T14:27:27.321Z,15.36
2023-05-10T14:29:54.378Z,15.35
2023-05-10T14:32:21.009Z,15.36
2023-05-10T14:34:47.651Z,15.37
2023-05-10T14:37:15.630Z,15.34
2023-05-10T14:39:43.385Z,15.35
2023-05-10T14:42:10.016Z,15.33
2023-05-10T14:44:36.539Z,15.35
2023-05-10T14:47:03.420Z,15.30
2023-05-10T14:49:30.252Z,15.34
2023-05-10T14:51:56.864Z,15.40
2023-05-10T14:54:23.447Z,15.42
2023-05-10T14:56:50.994Z,15.48
2023-05-10T14:59:17.640Z,15.55
2023-05-10T15:01:45.210Z,15.54
2023-05-10T15:04:13.945Z,15.51
2023-05-10T15:06:41.956Z,15.53
2023-05-10T15:09:08.490Z,15.52
2023-05-10T15:11:35.027Z,15.54
2023-05-10T15:14:02.709Z,15.56
2023-05-10T15:16:29.509Z,15.53
2023-05-10T15:18:56.286Z,15.52
2023-05-10T15:21:22.906Z,15.48
2023-05-10T15:23:49.852Z,15.44
2023-05-10T15:26:16.440Z,15.46
2023-05-10T15:28:42.957Z,15.51
2023-05-10T15:31:09.614Z,15.55
2023-05-10T15:33:38.192Z,15.60
2023-05-10T15:36:05.143Z,15.64
2023-05-10T15:38:32.515Z,15.64
2023-05-10T15:40:59.184Z,15.65
2023-05-10T15:43:26.826Z,15.62
2023-05-10T15:45:53.394Z,15.55
2023-05-10T15:48:19.974Z,15.53
2023-05-10T15:50:46.603Z,15.48
2023-05-10T15:53:13.261Z,15.44
2023-05-10T15:55:40.327Z,15.39
2023-05-10T15:58:06.905Z,15.33
2023-05-10T16:00:33.701Z,15.29
2023-05-10T16:03:00.884Z,15.28
2023-05-10T16:05:31.899Z,15.31
2023-05-10T16:07:58.547Z,15.27
2023-05-10T16:10:25.297Z,15.24
2023-05-10T16:12:52.037Z,15.22
2023-05-10T16:15:19.022Z,15.25
2023-05-10T16:17:46.114Z,15.25
2023-05-10T16:20:12.942Z,15.28
2023-05-10T16:22:39.631Z,15.28
2023-05-10T16:25:06.676Z,15.24
2023-05-10T16:27:33.679Z,15.25
2023-05-10T16:30:00.333Z,15.25
2023-05-10T16:32:27.126Z,15.20
2023-05-10T16:34:53.869Z,15.16
2023-05-10T16:37:20.927Z,15.10
2023-05-10T16:39:48.272Z,15.07
2023-05-10T16:42:14.998Z,15.08
2023-05-10T16:44:42.400Z,15.09
2023-05-10T16:47:09.016Z,15.09
2023-05-10T16:49:37.384Z,15.12
2023-05-10T16:52:04.094Z,15.11
2023-05-10T16:54:31.099Z,15.06
2023-05-10T16:56:57.697Z,15.04
2023-05-10T16:59:24.419Z,15.04
2023-05-10T17:01:53.325Z,15.04
2023-05-10T17:04:20.324Z,15.00
2023-05-10T17:06:46.924Z,15.00
2023-05-10T17:09:13.695Z,15.05
2023-05-10T17:11:40.321Z,15.05
2023-05-10T17:14:07.404Z,15.08
2023-05-10T17:16:34.114Z,15.11
2023-05-10T17:19:01.444Z,15.07
2023-05-10T17:21:28.119Z,15.05
2023-05-10T17:23:54.791Z,15.02
2023-05-10T17:26:22.469Z,15.03
2023-05-10T17:28:49.143Z,15.03
2023-05-10T17:31:15.856Z,14.98
2023-05-10T17:33:42.651Z,14.96
2023-05-10T17:36:09.338Z,14.96
2023-05-10T17:38:36.432Z,15.01
2023-05-10T17:41:03.112Z,15.05
2023-05-10T17:43:29.692Z,15.00
2023-05-10T17:45:56.369Z,14.98
2023-05-10T17:48:23.203Z,14.95
2023-05-10T17:50:52.932Z,14.87
2023-05-10T17:53:19.629Z,14.83
2023-05-10T17:55:47.040Z,14.82
2023-05-10T17:58:13.758Z,14.81
2023-05-10T18:00:40.636Z,14.78
2023-05-10T18:03:07.338Z,14.74
2023-05-10T18:05:38.872Z,14.71
2023-05-10T18:08:06.032Z,14.69
2023-05-10T18:10:32.788Z,14.67
2023-05-10T18:12:59.577Z,14.65
2023-05-10T18:15:27.655Z,14.63
2023-05-10T18:17:54.408Z,14.64
2023-05-10T18:20:21.071Z,14.66
2023-05-10T18:22:47.678Z,14.68
2023-05-10T18:25:14.451Z,14.69
2023-05-10T18:27:41.460Z,14.71
2023-05-10T18:30:10.174Z,14.77
2023-05-10T18:32:38.424Z,14.78
2023-05-10T18:35:07.022Z,14.78
2023-05-10T18:37:34.463Z,14.75
2023-05-10T18:40:01.126Z,14.76
2023-05-10T18:42:28.085Z,14.76
2023-05-10T18:44:55.342Z,14.77
2023-05-10T18:47:22.867Z,14.78
2023-05-10T18:49:49.792Z,14.83
2023-05-10T18:52:16.386Z,14.87
2023-05-10T18:54:43.054Z,14.92
2023-05-10T18:57:10.857Z,14.97
2023-05-10T18:59:37.516Z,15.00
2023-05-10T19:02:04.997Z,14.95
2023-05-10T19:04:31.930Z,14.87
2023-05-10T19:07:00.454Z,14.83
2023-05-10T19:09:27.708Z,14.80
2023-05-10T19:11:54.857Z,14.82
2023-05-10T19:14:21.620Z,14.87
2023-05-10T19:16:53.251Z,14.92
2023-05-10T19:19:21.510Z,14.89
2023-05-10T19:21:49.516Z,14.86
2023-05-10T19:24:17.208Z,14.84
2023-05-10T19:26:48.467Z,14.79
2023-05-10T19:29:15.590Z,14.76
2023-05-10T19:31:43.620Z,14.75
2023-05-10T19:34:11.845Z,14.71
2023-05-10T19:36:40.037Z,14.74
2023-05-10T19:39:06.973Z,14.80
2023-05-10T19:41:33.620Z,14.84
2023-05-10T19:44:00.452Z,14.91
2023-05-10T19:46:27.510Z,14.93
2023-05-10T19:48:54.171Z,14.88
2023-05-10T19:51:20.817Z,14.89
2023-05-10T19:53:48.978Z,14.87
2023-05-10T19:56:18.277Z,14.84
2023-05-10T19:58:46.933Z,14.88
2023-05-10T20:01:13.955Z,14.93
2023-05-10T20:03:40.866Z,14.92
2023-05-10T20:06:09.103Z,14.88
2023-05-10T20:08:35.975Z,14.88
2023-05-10T20:11:03.920Z,14.88
2023-05-10T20:13:31.994Z,14.90
2023-05-10T20:16:00.027Z,14.94
2023-05-10T20:18:27.132Z,14.95
2023-05-10T20:20:58.815Z,14.95
2023-05-10T20:23:27.333Z,14.99
2023-05-10T20:25:54.892Z,14.95
2023-05-10T20:28:26.341Z,14.89
2023-05-10T20:30:56.693Z,14.84
2023-05-10T20:33:24.702Z,14.78
2023-05-10T20:35:52.509Z,14.76
2023-05-10T20:38:19.198Z,14.80
2023-05-10T20:40:47.751Z,14.84
2023-05-10T20:43:14.652Z,14.82
2023-05-10T20:45:42.677Z,14.78
2023-05-10T20:48:09.864Z,14.76
2023-05-10T20:50:36.513Z,14.76
2023-05-10T20:53:03.197Z,14.73
2023-05-10T20:55:30.191Z,14.71
2023-05-10T20:57:57.270Z,14.68
2023-05-10T21:00:24.569Z,14.70
2023-05-10T21:02:51.563Z,14.70
2023-05-10T21:05:18.874Z,14.69
2023-05-10T21:07:45.748Z,14.69
2023-05-10T21:10:12.802Z,14.67
2023-05-10T21:12:39.520Z,14.63
2023-05-10T21:15:06.834Z,14.58
2023-05-10T21:17:33.863Z,14.58
2023-05-10T21:20:00.554Z,14.63
2023-05-10T21:22:30.308Z,14.70
2023-05-10T21:24:58.313Z,14.76
2023-05-10T21:27:25.014Z,14.75
2023-05-10T21:29:52.268Z,14.76
2023-05-10T21:32:18.964Z,14.80
2023-05-10T21:34:45.715Z,14.85
2023-05-10T21:37:12.326Z,14.84
2023-05-10T21:39:38.907Z,14.83
2023-05-10T21:42:05.566Z,14.79
2023-05-10T21:44:32.558Z,14.79
2023-05-10T21:46:59.200Z,14.84
2023-05-10T21:49:26.099Z,14.88
2023-05-10T21:51:52.935Z,14.94
2023-05-10T21:54:19.626Z,14.97
2023-05-10T21:56:46.400Z,15.00
2023-05-10T21:59:16.130Z,15.04
2023-05-10T22:01:43.947Z,15.07
2023-05-10T22:04:10.753Z,15.10
2023-05-10T22:06:37.422Z,15.12
2023-05-10T22:09:05.103Z,15.13
2023-05-10T22:11:31.673Z,15.13
2023-05-10T22:13:58.676Z,15.15
2023-05-10T22:16:25.469Z,15.17
2023-05-10T22:18:54.218Z,15.17
2023-05-10T22:21:21.477Z,15.18
2023-05-10T22:23:48.095Z,15.19
2023-05-10T22:26:14.677Z,15.19
2023-05-10T22:28:41.688Z,15.20
2023-05-10T22:31:12.990Z,15.20
2023-05-10T22:33:39.721Z,15.21
2023-05-10T22:36:06.870Z,15.21
2023-05-10T22:38:33.488Z,15.21
2023-05-10T22:41:00.154Z,15.20
2023-05-10T22:43:27.006Z,15.20
2023-05-10T22:45:53.641Z,15.20
2023-05-10T22:48:21.008Z,15.19
2023-05-10T22:50:47.630Z,15.18
2023-05-10T22:53:14.240Z,15.16
2023-05-10T22:55:41.220Z,15.15
2023-05-10T22:58:08.017Z,15.13
2023-05-10T23:00:34.742Z,15.10
2023-05-10T23:03:02.048Z,15.08
2023-05-10T23:05:28.760Z,15.06
2023-05-10T23:07:55.413Z,15.05
2023-05-10T23:10:22.434Z,15.04
2023-05-10T23:12:49.105Z,15.03
2023-05-10T23:15:15.816Z,15.03
2023-05-10T23:17:42.515Z,15.02
2023-05-10T23:20:10.081Z,14.98
2023-05-10T23:22:37.543Z,14.90
2023-05-10T23:25:04.460Z,14.76
2023-05-10T23:27:31.223Z,14.64
2023-05-10T23:29:58.283Z,14.56
2023-05-10T23:32:25.027Z,14.46
2023-05-10T23:34:52.234Z,14.43
2023-05-10T23:37:18.936Z,14.46
2023-05-10T23:39:45.628Z,14.47
2023-05-10T23:42:12.193Z,14.49
2023-05-10T23:44:38.847Z,14.51
2023-05-10T23:47:06.131Z,14.52
2023-05-10T23:49:32.801Z,14.51
2023-05-10T23:51:59.473Z,14.49
2023-05-10T23:54:26.178Z,14.45
2023-05-10T23:56:52.829Z,14.43
2023-05-10T23:59:19.414Z,14.40
